createdAt,value
2023-05-16T00:00:49.677Z,10.91
2023-05-16T00:01:49.732Z,10.90
2023-05-16T00:02:49.775Z,10.90
2023-05-16T00:03:49.737Z,10.86
2023-05-16T00:04:49.744Z,10.85
2023-05-16T00:05:49.634Z,10.80
2023-05-16T00:06:49.583Z,10.80
2023-05-16T00:07:49.608Z,10.82
2023-05-16T00:08:49.597Z,10.82
2023-05-16T00:09:49.559Z,10.85
2023-05-16T00:10:49.559Z,10.86
2023-05-16T00:11:49.556Z,10.87
2023-05-16T00:12:49.526Z,10.85
2023-05-16T00:13:49.580Z,10.80
2023-05-16T00:14:49.525Z,10.80
2023-05-16T00:15:49.526Z,10.82
2023-05-16T00:16:49.500Z,10.80
2023-05-16T00:17:49.560Z,10.82
2023-05-16T00:18:49.509Z,10.82
2023-05-16T00:19:49.453Z,10.82
2023-05-16T00:20:49.474Z,10.80
2023-05-16T00:21:49.451Z,10.80
2023-05-16T00:22:49.417Z,10.80
2023-05-16T00:23:49.453Z,10.83
2023-05-16T00:24:49.395Z,10.85
2023-05-16T00:25:49.420Z,10.87
2023-05-16T00:26:49.369Z,10.87
2023-05-16T00:27:49.368Z,10.85
2023-05-16T00:28:49.385Z,10.85
2023-05-16T00:29:49.405Z,10.85
2023-05-16T00:30:49.332Z,10.86
2023-05-16T00:31:49.408Z,10.86
2023-05-16T00:32:49.393Z,10.86
2023-05-16T00:33:49.308Z,10.85
2023-05-16T00:34:49.371Z,10.90
2023-05-16T00:35:49.303Z,10.86
2023-05-16T00:36:49.282Z,10.82
2023-05-16T00:37:49.254Z,10.82
2023-05-16T00:38:49.271Z,10.80
2023-05-16T00:39:49.243Z,10.80
2023-05-16T00:40:49.230Z,10.82
2023-05-16T00:41:49.217Z,10.82
2023-05-16T00:42:49.235Z,10.80
2023-05-16T00:43:49.259Z,10.80
2023-05-16T00:44:49.227Z,10.79
2023-05-16T00:45:49.196Z,10.78
2023-05-16T00:46:49.366Z,10.73
2023-05-16T00:47:49.212Z,10.68
2023-05-16T00:48:49.140Z,10.64
2023-05-16T00:49:49.138Z,10.65
2023-05-16T00:50:49.150Z,10.58
2023-05-16T00:51:49.155Z,10.49
2023-05-16T00:52:49.101Z,10.46
2023-05-16T00:53:49.089Z,10.46
2023-05-16T00:54:49.066Z,10.43
2023-05-16T00:55:49.102Z,10.42
2023-05-16T00:56:49.056Z,10.41
2023-05-16T00:57:49.054Z,10.41
2023-05-16T00:58:49.212Z,10.41
2023-05-16T00:59:49.080Z,10.38
2023-05-16T01:00:49.065Z,10.35
2023-05-16T01:01:49.076Z,10.36
2023-05-16T01:02:49.109Z,10.36
2023-05-16T01:03:49.247Z,10.38
2023-05-16T01:04:48.968Z,10.38
2023-05-16T01:05:49.013Z,10.38
2023-05-16T01:06:49.014Z,10.35
2023-05-16T01:07:48.964Z,10.35
2023-05-16T01:08:48.937Z,10.38
2023-05-16T01:09:48.921Z,10.30
2023-05-16T01:10:48.942Z,10.26
2023-05-16T01:11:48.888Z,10.24
2023-05-16T01:12:48.875Z,10.17
2023-05-16T01:13:48.900Z,10.16
2023-05-16T01:14:48.878Z,10.12
2023-05-16T01:15:48.877Z,10.10
2023-05-16T01:16:48.908Z,10.09
2023-05-16T01:17:48.867Z,10.12
2023-05-16T01:18:48.904Z,10.12
2023-05-16T01:19:48.824Z,10.10
2023-05-16T01:20:48.844Z,10.08
2023-05-16T01:21:48.791Z,10.06
2023-05-16T01:22:48.780Z,9.96
2023-05-16T01:23:48.762Z,9.91
2023-05-16T01:24:48.749Z,9.85
2023-05-16T01:25:48.785Z,9.83
2023-05-16T01:26:48.760Z,9.77
2023-05-16T01:27:48.710Z,9.67
2023-05-16T01:28:48.706Z,9.67
2023-05-16T01:29:48.695Z,9.69
2023-05-16T01:30:48.678Z,9.69
2023-05-16T01:31:48.769Z,9.65
2023-05-16T01:32:48.759Z,9.66
2023-05-16T01:33:48.659Z,9.66
2023-05-16T01:34:48.701Z,9.67
2023-05-16T01:35:48.634Z,9.66
2023-05-16T01:36:48.658Z,9.65
2023-05-16T01:37:48.631Z,9.65
2023-05-16T01:38:48.596Z,9.63
2023-05-16T01:39:55.627Z,9.63
2023-05-16T01:40:48.568Z,9.60
2023-05-16T01:41:48.656Z,9.59
2023-05-16T01:42:48.554Z,9.54
2023-05-16T01:43:48.586Z,9.51
2023-05-16T01:44:48.557Z,9.52
2023-05-16T01:45:48.536Z,9.52
2023-05-16T01:46:48.615Z,9.48
2023-05-16T01:47:48.618Z,9.48
2023-05-16T01:48:48.486Z,9.45
2023-05-16T01:49:48.483Z,9.48
2023-05-16T01:50:48.474Z,9.48
2023-05-16T01:51:48.508Z,9.51
2023-05-16T01:52:48.482Z,9.52
2023-05-16T01:53:48.442Z,9.57
2023-05-16T01:54:48.424Z,9.57
2023-05-16T01:55:48.415Z,9.54
2023-05-16T01:56:48.511Z,9.52
2023-05-16T01:57:48.405Z,9.52
2023-05-16T01:58:48.382Z,9.50
2023-05-16T01:59:48.383Z,9.52
2023-05-16T02:00:48.407Z,9.51
2023-05-16T02:01:48.380Z,9.52
2023-05-16T02:02:48.444Z,9.54
2023-05-16T02:03:48.396Z,9.55
2023-05-16T02:04:48.382Z,9.54
2023-05-16T02:05:48.312Z,9.55
2023-05-16T02:06:48.289Z,9.52
2023-05-16T02:07:48.292Z,9.52
2023-05-16T02:08:48.272Z,9.50
2023-05-16T02:09:48.338Z,9.47
2023-05-16T02:10:48.253Z,9.47
2023-05-16T02:11:48.248Z,9.47
2023-05-16T02:12:48.235Z,9.48
2023-05-16T02:13:48.230Z,9.47
2023-05-16T02:14:48.229Z,9.45
2023-05-16T02:15:48.239Z,9.45
2023-05-16T02:16:48.319Z,9.45
2023-05-16T02:17:48.280Z,9.45
2023-05-16T02:18:48.203Z,9.45
2023-05-16T02:19:48.438Z,9.47
2023-05-16T02:20:48.174Z,9.45
2023-05-16T02:21:48.191Z,9.47
2023-05-16T02:22:48.159Z,9.47
2023-05-16T02:23:48.112Z,9.48
2023-05-16T02:24:48.123Z,9.48
2023-05-16T02:25:48.126Z,9.45
2023-05-16T02:26:48.086Z,9.47
2023-05-16T02:27:48.071Z,9.47
2023-05-16T02:28:48.080Z,9.50
2023-05-16T02:29:48.076Z,9.50
2023-05-16T02:30:48.082Z,9.51
2023-05-16T02:31:48.030Z,9.54
2023-05-16T02:32:48.119Z,9.55
2023-05-16T02:33:48.130Z,9.57
2023-05-16T02:34:48.044Z,9.60
2023-05-16T02:35:48.003Z,9.59
2023-05-16T02:36:47.980Z,9.57
2023-05-16T02:37:47.991Z,9.57
2023-05-16T02:38:47.956Z,9.54
2023-05-16T02:39:48.054Z,9.57
2023-05-16T02:40:47.942Z,9.60
2023-05-16T02:41:47.941Z,9.60
2023-05-16T02:42:47.921Z,9.59
2023-05-16T02:43:47.901Z,9.57
2023-05-16T02:44:47.920Z,9.57
2023-05-16T02:45:47.948Z,9.55
2023-05-16T02:46:47.961Z,9.54
2023-05-16T02:47:47.895Z,9.54
2023-05-16T02:48:47.850Z,9.57
2023-05-16T02:49:47.829Z,9.57
2023-05-16T02:50:47.830Z,9.59
2023-05-16T02:51:47.839Z,9.63
2023-05-16T02:52:47.818Z,9.62
2023-05-16T02:53:47.800Z,9.63
2023-05-16T02:54:59.898Z,9.63
2023-05-16T02:55:48.773Z,9.60
2023-05-16T02:56:47.788Z,9.54
2023-05-16T02:57:47.771Z,9.54
2023-05-16T02:58:47.750Z,9.57
2023-05-16T02:59:47.730Z,9.55
2023-05-16T03:00:47.713Z,9.52
2023-05-16T03:01:47.840Z,9.54
2023-05-16T03:02:47.805Z,9.55
2023-05-16T03:03:47.835Z,9.54
2023-05-16T03:04:47.679Z,9.48
2023-05-16T03:05:47.684Z,9.51
2023-05-16T03:06:47.653Z,9.52
2023-05-16T03:07:47.648Z,9.52
2023-05-16T03:08:47.635Z,9.51
2023-05-16T03:09:47.632Z,9.48
2023-05-16T03:10:47.690Z,9.45
2023-05-16T03:11:47.662Z,9.48
2023-05-16T03:12:47.608Z,9.50
2023-05-16T03:13:47.602Z,9.48
2023-05-16T03:14:47.570Z,9.44
2023-05-16T03:15:47.577Z,9.42
2023-05-16T03:16:47.701Z,9.42
2023-05-16T03:17:47.587Z,9.41
2023-05-16T03:18:47.628Z,9.37
2023-05-16T03:19:47.517Z,9.34
2023-05-16T03:20:47.549Z,9.32
2023-05-16T03:21:47.546Z,9.32
2023-05-16T03:22:47.489Z,9.30
2023-05-16T03:23:47.484Z,9.27
2023-05-16T03:24:47.580Z,9.26
2023-05-16T03:25:47.503Z,9.26
2023-05-16T03:26:47.452Z,9.23
2023-05-16T03:27:47.429Z,9.18
2023-05-16T03:28:47.420Z,9.18
2023-05-16T03:29:47.406Z,9.19
2023-05-16T03:30:47.410Z,9.18
2023-05-16T03:31:47.520Z,9.16
2023-05-16T03:32:47.468Z,9.14
2023-05-16T03:33:47.377Z,9.12
2023-05-16T03:34:47.375Z,9.06
2023-05-16T03:35:47.359Z,9.06
2023-05-16T03:36:47.415Z,9.06
2023-05-16T03:37:47.328Z,9.06
2023-05-16T03:38:47.316Z,9.04
2023-05-16T03:39:47.304Z,9.01
2023-05-16T03:40:47.329Z,8.99
2023-05-16T03:41:47.298Z,8.99
2023-05-16T03:42:47.279Z,8.99
2023-05-16T03:43:47.316Z,8.99
2023-05-16T03:44:47.255Z,8.98
2023-05-16T03:45:47.360Z,8.96
2023-05-16T03:46:47.259Z,8.98
2023-05-16T03:47:47.240Z,8.93
2023-05-16T03:48:47.236Z,8.92
2023-05-16T03:49:47.270Z,8.86
2023-05-16T03:50:47.206Z,8.81
2023-05-16T03:51:47.174Z,8.80
2023-05-16T03:52:47.189Z,8.78
2023-05-16T03:53:47.199Z,8.77
2023-05-16T03:54:47.227Z,8.77
2023-05-16T03:55:48.745Z,8.77
2023-05-16T03:56:47.129Z,8.77
2023-05-16T03:57:47.113Z,8.78
2023-05-16T03:58:47.173Z,8.78
2023-05-16T03:59:47.140Z,8.77
2023-05-16T04:00:47.087Z,8.74
2023-05-16T04:01:47.134Z,8.74
2023-05-16T04:02:47.268Z,8.74
2023-05-16T04:03:47.047Z,8.74
2023-05-16T04:04:47.045Z,8.72
2023-05-16T04:05:47.062Z,8.72
2023-05-16T04:06:47.026Z,8.71
2023-05-16T04:07:47.029Z,8.65
2023-05-16T04:08:47.000Z,8.65
2023-05-16T04:09:46.987Z,8.67
2023-05-16T04:10:46.975Z,8.65
2023-05-16T04:11:46.964Z,8.63
2023-05-16T04:12:46.954Z,8.60
2023-05-16T04:13:47.095Z,8.62
2023-05-16T04:14:46.948Z,8.60
2023-05-16T04:15:46.924Z,8.53
2023-05-16T04:16:47.015Z,8.56
2023-05-16T04:17:46.960Z,8.56
2023-05-16T04:18:46.955Z,8.56
2023-05-16T04:19:46.885Z,8.55
2023-05-16T04:20:46.877Z,8.55
2023-05-16T04:21:46.853Z,8.55
2023-05-16T04:22:46.854Z,8.55
2023-05-16T04:23:46.876Z,8.50
2023-05-16T04:24:46.831Z,8.50
2023-05-16T04:25:46.814Z,8.52
2023-05-16T04:26:46.801Z,8.52
2023-05-16T04:27:46.795Z,8.57
2023-05-16T04:28:47.458Z,8.57
2023-05-16T04:29:46.802Z,8.56
2023-05-16T04:30:46.772Z,8.53
2023-05-16T04:31:46.803Z,8.52
2023-05-16T04:32:46.796Z,8.52
2023-05-16T04:33:46.728Z,8.53
2023-05-16T04:34:46.762Z,8.55
2023-05-16T04:35:46.712Z,8.56
2023-05-16T04:36:46.704Z,8.56
2023-05-16T04:37:46.693Z,8.59
2023-05-16T04:38:46.686Z,8.59
2023-05-16T04:39:46.739Z,8.57
2023-05-16T04:40:46.660Z,8.59
2023-05-16T04:41:46.670Z,8.60
2023-05-16T04:42:46.644Z,8.59
2023-05-16T04:43:46.672Z,8.60
2023-05-16T04:44:46.689Z,8.63
2023-05-16T04:45:46.607Z,8.63
2023-05-16T04:46:46.726Z,8.63
2023-05-16T04:47:46.634Z,8.62
2023-05-16T04:48:46.581Z,8.62
2023-05-16T04:49:46.568Z,8.62
2023-05-16T04:50:46.627Z,8.63
2023-05-16T04:51:46.547Z,8.65
2023-05-16T04:52:46.557Z,8.65
2023-05-16T04:53:46.517Z,8.65
2023-05-16T04:54:46.574Z,8.67
2023-05-16T04:55:46.510Z,8.63
2023-05-16T04:56:46.489Z,8.63
2023-05-16T04:57:46.516Z,8.63
2023-05-16T04:58:46.473Z,8.68
2023-05-16T04:59:48.035Z,8.71
2023-05-16T05:00:46.455Z,8.74
2023-05-16T05:01:46.523Z,8.74
2023-05-16T05:02:46.485Z,8.71
2023-05-16T05:03:48.322Z,8.71
2023-05-16T05:04:48.349Z,8.71
2023-05-16T05:05:46.394Z,8.68
2023-05-16T05:06:46.400Z,8.71
2023-05-16T05:07:46.413Z,8.74
2023-05-16T05:08:46.364Z,8.74
2023-05-16T05:09:46.378Z,8.74
2023-05-16T05:10:46.368Z,8.74
2023-05-16T05:11:46.331Z,8.74
2023-05-16T05:12:46.330Z,8.74
2023-05-16T05:13:46.344Z,8.75
2023-05-16T05:14:46.369Z,8.78
2023-05-16T05:15:46.284Z,8.80
2023-05-16T05:16:46.279Z,8.80
2023-05-16T05:17:46.363Z,8.77
2023-05-16T05:18:46.429Z,8.71
2023-05-16T05:19:46.336Z,8.71
2023-05-16T05:20:46.229Z,8.74
2023-05-16T05:21:46.212Z,8.75
2023-05-16T05:22:46.217Z,8.77
2023-05-16T05:23:46.197Z,8.75
2023-05-16T05:24:49.178Z,8.77
2023-05-16T05:25:46.177Z,8.77
2023-05-16T05:26:46.175Z,8.80
2023-05-16T05:27:46.157Z,8.81
2023-05-16T05:28:53.906Z,8.85
2023-05-16T05:29:47.138Z,8.86
2023-05-16T05:30:46.230Z,8.90
2023-05-16T05:31:46.227Z,8.95
2023-05-16T05:32:46.157Z,8.96
2023-05-16T05:33:46.085Z,8.96
2023-05-16T05:34:46.091Z,8.98
2023-05-16T05:35:46.105Z,9.06
2023-05-16T05:36:46.070Z,9.08
2023-05-16T05:37:46.095Z,9.12
2023-05-16T05:38:46.058Z,9.15
2023-05-16T05:39:46.029Z,9.18
2023-05-16T05:40:46.180Z,9.19
2023-05-16T05:41:46.006Z,9.24
2023-05-16T05:42:47.221Z,9.24
2023-05-16T05:43:45.982Z,9.23
2023-05-16T05:44:45.997Z,9.27
2023-05-16T05:45:45.983Z,9.24
2023-05-16T05:46:45.981Z,9.29
2023-05-16T05:47:45.982Z,9.29
2023-05-16T05:48:45.936Z,9.32
2023-05-16T05:49:45.928Z,9.30
2023-05-16T05:50:45.949Z,9.29
2023-05-16T05:51:45.907Z,9.24
2023-05-16T05:52:45.906Z,9.23
2023-05-16T05:53:45.870Z,9.22
2023-05-16T05:54:45.868Z,9.24
2023-05-16T05:55:45.871Z,9.23
2023-05-16T05:56:48.924Z,9.24
2023-05-16T05:57:45.828Z,9.23
2023-05-16T05:58:45.825Z,9.26
2023-05-16T05:59:45.804Z,9.32
2023-05-16T06:00:45.809Z,9.36
2023-05-16T06:01:45.826Z,9.41
2023-05-16T06:02:46.310Z,9.41
2023-05-16T06:03:45.769Z,9.41
2023-05-16T06:04:45.760Z,9.41
2023-05-16T06:05:49.332Z,9.40
2023-05-16T06:06:45.743Z,9.42
2023-05-16T06:07:45.729Z,9.41
2023-05-16T06:08:45.746Z,9.44
2023-05-16T06:09:45.718Z,9.47
2023-05-16T06:10:45.702Z,9.55
2023-05-16T06:11:47.914Z,9.57
2023-05-16T06:12:47.334Z,9.60
2023-05-16T06:13:45.659Z,9.63
2023-05-16T06:14:45.739Z,9.63
2023-05-16T06:15:45.649Z,9.66
2023-05-16T06:16:45.655Z,9.69
2023-05-16T06:17:45.665Z,9.72
2023-05-16T06:18:45.649Z,9.75
2023-05-16T06:19:45.593Z,9.78
2023-05-16T06:20:47.516Z,9.80
2023-05-16T06:21:45.576Z,9.81
2023-05-16T06:22:45.569Z,9.81
2023-05-16T06:23:45.555Z,9.80
2023-05-16T06:24:45.587Z,9.75
2023-05-16T06:25:45.536Z,9.70
2023-05-16T06:26:47.337Z,9.72
2023-05-16T06:27:47.507Z,9.75
2023-05-16T06:28:45.518Z,9.78
2023-05-16T06:29:45.491Z,9.80
2023-05-16T06:30:45.518Z,9.85
2023-05-16T06:31:45.521Z,9.87
2023-05-16T06:32:45.557Z,9.90
2023-05-16T06:33:45.451Z,9.88
2023-05-16T06:34:45.438Z,9.87
2023-05-16T06:35:45.429Z,9.88
2023-05-16T06:36:45.448Z,9.87
2023-05-16T06:37:47.044Z,9.87
2023-05-16T06:38:47.144Z,9.90
2023-05-16T06:39:45.400Z,9.91
2023-05-16T06:40:45.389Z,9.96
2023-05-16T06:41:45.375Z,10.01
2023-05-16T06:42:45.358Z,10.06
2023-05-16T06:43:45.349Z,10.09
2023-05-16T06:44:52.668Z,10.10
2023-05-16T06:45:45.330Z,10.12
2023-05-16T06:46:45.356Z,10.16
2023-05-16T06:47:45.317Z,10.18
2023-05-16T06:48:45.379Z,10.21
2023-05-16T06:49:45.322Z,10.31
2023-05-16T06:50:45.265Z,10.46
2023-05-16T06:51:45.268Z,10.48
2023-05-16T06:52:45.269Z,10.41
2023-05-16T06:53:45.237Z,10.34
2023-05-16T06:54:46.921Z,10.30
2023-05-16T06:55:45.252Z,10.28
2023-05-16T06:56:45.218Z,10.28
2023-05-16T06:57:45.203Z,10.30
2023-05-16T06:58:45.254Z,10.27
2023-05-16T06:59:50.214Z,10.20
2023-05-16T07:00:45.164Z,10.12
2023-05-16T07:01:45.257Z,10.14
2023-05-16T07:02:45.226Z,10.18
2023-05-16T07:03:45.197Z,10.26
2023-05-16T07:04:46.817Z,10.38
2023-05-16T07:05:45.118Z,10.42
2023-05-16T07:06:45.100Z,10.43
2023-05-16T07:07:45.090Z,10.41
2023-05-16T07:08:45.130Z,10.36
2023-05-16T07:09:45.069Z,10.34
2023-05-16T07:10:45.060Z,10.36
2023-05-16T07:11:45.056Z,10.36
2023-05-16T07:12:45.040Z,10.42
2023-05-16T07:13:46.592Z,10.46
2023-05-16T07:14:45.031Z,10.54
2023-05-16T07:15:45.003Z,10.60
2023-05-16T07:16:45.037Z,10.64
2023-05-16T07:17:45.029Z,10.64
2023-05-16T07:18:46.671Z,10.67
2023-05-16T07:19:44.962Z,10.75
2023-05-16T07:20:46.646Z,10.82
2023-05-16T07:21:44.949Z,10.85
2023-05-16T07:22:44.935Z,10.90
2023-05-16T07:23:44.966Z,10.93
2023-05-16T07:24:44.918Z,11.00
2023-05-16T07:25:44.919Z,10.94
2023-05-16T07:26:44.921Z,10.87
2023-05-16T07:27:44.993Z,10.86
2023-05-16T07:28:44.895Z,10.90
2023-05-16T07:29:44.867Z,10.93
2023-05-16T07:30:44.847Z,10.91
2023-05-16T07:31:44.882Z,10.90
2023-05-16T07:32:45.851Z,10.94
2023-05-16T07:33:44.825Z,11.00
2023-05-16T07:34:44.797Z,11.00
2023-05-16T07:35:44.787Z,10.98
2023-05-16T07:36:44.772Z,10.95
2023-05-16T07:37:46.686Z,10.91
2023-05-16T07:38:45.497Z,10.83
2023-05-16T07:39:44.746Z,10.83
2023-05-16T07:40:44.731Z,10.83
2023-05-16T07:41:44.725Z,10.82
2023-05-16T07:42:46.424Z,10.78
2023-05-16T07:43:44.704Z,10.78
2023-05-16T07:44:44.692Z,10.79
2023-05-16T07:45:44.735Z,10.82
2023-05-16T07:46:45.015Z,10.85
2023-05-16T07:47:44.692Z,10.93
2023-05-16T07:48:44.652Z,10.94
2023-05-16T07:49:44.637Z,10.97
2023-05-16T07:50:44.662Z,10.95
2023-05-16T07:51:44.613Z,10.98
2023-05-16T07:52:48.300Z,11.01
2023-05-16T07:53:44.592Z,11.03
2023-05-16T07:54:44.576Z,11.05
2023-05-16T07:55:44.572Z,11.04
2023-05-16T07:56:44.566Z,11.03
2023-05-16T07:57:46.498Z,11.04
2023-05-16T07:58:44.539Z,11.08
2023-05-16T07:59:44.598Z,11.11
2023-05-16T08:00:44.527Z,11.16
2023-05-16T08:01:44.513Z,11.20
2023-05-16T08:02:44.631Z,11.23
2023-05-16T08:03:46.253Z,11.28
2023-05-16T08:04:44.477Z,11.33
2023-05-16T08:05:44.507Z,11.36
2023-05-16T08:06:49.198Z,11.38
2023-05-16T08:07:47.593Z,11.28
2023-05-16T08:08:44.438Z,11.16
2023-05-16T08:09:44.420Z,11.13
2023-05-16T08:10:44.412Z,11.05
2023-05-16T08:11:44.402Z,11.05
2023-05-16T08:12:46.034Z,11.04
2023-05-16T08:13:44.380Z,11.04
2023-05-16T08:14:44.389Z,11.00
2023-05-16T08:15:44.487Z,10.95
2023-05-16T08:16:44.392Z,10.95
2023-05-16T08:17:44.356Z,10.97
2023-05-16T08:18:44.363Z,11.00
2023-05-16T08:19:44.320Z,11.04
2023-05-16T08:20:44.310Z,11.08
2023-05-16T08:21:46.084Z,11.13
2023-05-16T08:22:44.298Z,11.20
2023-05-16T08:23:44.271Z,11.25
2023-05-16T08:24:44.262Z,11.31
2023-05-16T08:25:44.277Z,11.41
2023-05-16T08:26:44.240Z,11.49
2023-05-16T08:27:44.294Z,11.56
2023-05-16T08:28:44.219Z,11.61
2023-05-16T08:29:44.218Z,11.70
2023-05-16T08:30:46.457Z,11.76
2023-05-16T08:31:44.262Z,11.79
2023-05-16T08:32:44.259Z,11.80
2023-05-16T08:33:45.967Z,11.77
2023-05-16T08:34:44.182Z,11.80
2023-05-16T08:35:44.178Z,11.82
2023-05-16T08:36:44.134Z,11.84
2023-05-16T08:37:44.127Z,11.88
2023-05-16T08:38:44.122Z,11.91
2023-05-16T08:39:44.152Z,11.84
2023-05-16T08:40:44.099Z,11.82
2023-05-16T08:41:44.079Z,11.85
2023-05-16T08:42:45.397Z,11.87
2023-05-16T08:43:44.088Z,11.93
2023-05-16T08:44:44.048Z,11.97
2023-05-16T08:45:46.104Z,12.00
2023-05-16T08:46:44.108Z,12.05
2023-05-16T08:47:44.032Z,12.11
2023-05-16T08:48:44.068Z,12.18
2023-05-16T08:49:44.014Z,12.23
2023-05-16T08:50:44.013Z,12.26
2023-05-16T08:51:43.976Z,12.30
2023-05-16T08:52:43.975Z,12.35
2023-05-16T08:53:47.176Z,12.35
2023-05-16T08:54:44.295Z,12.36
2023-05-16T08:55:43.984Z,12.43
2023-05-16T08:56:43.937Z,12.48
2023-05-16T08:57:43.913Z,12.53
2023-05-16T08:58:45.482Z,12.54
2023-05-16T08:59:43.897Z,12.59
2023-05-16T09:00:43.901Z,12.62
2023-05-16T09:01:43.902Z,12.63
2023-05-16T09:02:43.948Z,12.69
2023-05-16T09:03:43.918Z,12.72
2023-05-16T09:04:45.292Z,12.71
2023-05-16T09:05:43.872Z,12.73
2023-05-16T09:06:43.811Z,12.80
2023-05-16T09:07:43.818Z,12.81
2023-05-16T09:08:43.806Z,12.84
2023-05-16T09:09:45.496Z,12.81
2023-05-16T09:10:43.825Z,12.79
2023-05-16T09:11:43.764Z,12.79
2023-05-16T09:12:43.796Z,12.77
2023-05-16T09:13:43.759Z,12.72
2023-05-16T09:14:43.737Z,12.66
2023-05-16T09:15:51.994Z,12.65
2023-05-16T09:16:43.750Z,12.69
2023-05-16T09:17:46.806Z,12.76
2023-05-16T09:18:43.833Z,12.86
2023-05-16T09:19:43.751Z,12.98
2023-05-16T09:20:45.091Z,13.06
2023-05-16T09:21:43.655Z,13.13
2023-05-16T09:22:43.640Z,13.09
2023-05-16T09:23:43.670Z,12.96
2023-05-16T09:24:43.756Z,12.86
2023-05-16T09:25:43.617Z,12.83
2023-05-16T09:26:43.634Z,12.81
2023-05-16T09:27:43.596Z,12.83
2023-05-16T09:28:43.593Z,12.83
2023-05-16T09:29:43.602Z,12.84
2023-05-16T09:30:46.830Z,12.86
2023-05-16T09:31:43.653Z,12.84
2023-05-16T09:32:43.599Z,12.84
2023-05-16T09:33:43.531Z,12.86
2023-05-16T09:34:43.514Z,12.86
2023-05-16T09:35:45.489Z,12.86
2023-05-16T09:36:44.113Z,12.84
2023-05-16T09:37:43.483Z,12.83
2023-05-16T09:38:43.474Z,12.86
2023-05-16T09:39:43.461Z,12.83
2023-05-16T09:40:43.446Z,12.79
2023-05-16T09:41:45.223Z,12.76
2023-05-16T09:42:43.422Z,12.72
2023-05-16T09:43:43.428Z,12.73
2023-05-16T09:44:43.417Z,12.76
2023-05-16T09:45:43.450Z,12.77
2023-05-16T09:46:43.482Z,12.81
2023-05-16T09:47:43.432Z,12.84
2023-05-16T09:48:43.363Z,12.91
2023-05-16T09:49:43.354Z,13.01
2023-05-16T09:50:43.338Z,13.08
2023-05-16T09:51:43.334Z,13.13
2023-05-16T09:52:45.143Z,13.06
2023-05-16T09:53:43.323Z,13.09
2023-05-16T09:54:43.295Z,13.11
2023-05-16T09:55:43.298Z,13.11
2023-05-16T09:56:43.272Z,13.05
2023-05-16T09:57:43.302Z,13.01
2023-05-16T09:58:43.304Z,12.96
2023-05-16T09:59:43.245Z,12.95
2023-05-16T10:00:43.240Z,12.96
2023-05-16T10:01:43.265Z,12.96
2023-05-16T10:02:43.309Z,12.96
2023-05-16T10:03:43.363Z,13.01
2023-05-16T10:04:44.959Z,13.05
2023-05-16T10:05:43.180Z,13.09
2023-05-16T10:06:44.912Z,13.16
2023-05-16T10:07:43.160Z,13.21
2023-05-16T10:08:43.229Z,13.29
2023-05-16T10:09:43.174Z,13.38
2023-05-16T10:10:43.131Z,13.45
2023-05-16T10:11:43.186Z,13.53
2023-05-16T10:12:43.266Z,13.51
2023-05-16T10:13:43.134Z,13.49
2023-05-16T10:14:43.247Z,13.45
2023-05-16T10:15:43.075Z,13.45
2023-05-16T10:16:44.971Z,13.49
2023-05-16T10:17:43.091Z,13.47
2023-05-16T10:18:43.154Z,13.45
2023-05-16T10:19:43.044Z,13.45
2023-05-16T10:20:43.029Z,13.40
2023-05-16T10:21:43.071Z,13.39
2023-05-16T10:22:42.992Z,13.38
2023-05-16T10:23:43.197Z,13.38
2023-05-16T10:24:42.972Z,13.36
2023-05-16T10:25:42.971Z,13.38
2023-05-16T10:26:42.950Z,13.35
2023-05-16T10:27:42.951Z,13.24
2023-05-16T10:28:42.939Z,13.16
2023-05-16T10:29:53.513Z,13.09
2023-05-16T10:30:43.929Z,13.01
2023-05-16T10:31:42.952Z,12.96
2023-05-16T10:32:43.133Z,12.95
2023-05-16T10:33:42.922Z,12.95
2023-05-16T10:34:42.877Z,12.91
2023-05-16T10:35:42.912Z,12.95
2023-05-16T10:36:42.840Z,12.99
2023-05-16T10:37:42.851Z,13.05
2023-05-16T10:38:42.822Z,13.08
2023-05-16T10:39:42.850Z,13.19
2023-05-16T10:40:42.826Z,13.24
2023-05-16T10:41:46.149Z,13.30
2023-05-16T10:42:42.768Z,13.42
2023-05-16T10:43:44.569Z,13.46
2023-05-16T10:44:48.840Z,13.47
2023-05-16T10:45:43.840Z,13.46
2023-05-16T10:46:42.736Z,13.46
2023-05-16T10:47:42.749Z,13.49
2023-05-16T10:48:42.733Z,13.38
2023-05-16T10:49:43.782Z,13.21
2023-05-16T10:50:42.691Z,13.23
2023-05-16T10:51:42.674Z,13.30
2023-05-16T10:52:42.679Z,13.39
2023-05-16T10:53:42.658Z,13.53
2023-05-16T10:54:42.651Z,13.68
2023-05-16T10:55:42.676Z,13.76
2023-05-16T10:56:42.643Z,13.78
2023-05-16T10:57:42.652Z,13.80
2023-05-16T10:58:42.603Z,13.86
2023-05-16T10:59:42.585Z,13.91
2023-05-16T11:00:42.581Z,13.93
2023-05-16T11:01:42.705Z,13.94
2023-05-16T11:02:42.772Z,13.91
2023-05-16T11:03:45.809Z,13.91
2023-05-16T11:04:42.697Z,13.96
2023-05-16T11:05:42.520Z,14.03
2023-05-16T11:06:42.552Z,14.08
2023-05-16T11:07:42.494Z,14.08
2023-05-16T11:08:42.486Z,14.04
2023-05-16T11:09:44.152Z,14.03
2023-05-16T11:10:42.548Z,14.08
2023-05-16T11:11:45.622Z,14.19
2023-05-16T11:12:42.463Z,14.30
2023-05-16T11:13:42.503Z,14.37
2023-05-16T11:14:42.538Z,14.36
2023-05-16T11:15:42.465Z,14.23
2023-05-16T11:16:42.430Z,14.11
2023-05-16T11:17:44.739Z,13.94
2023-05-16T11:18:42.408Z,13.83
2023-05-16T11:19:42.414Z,13.82
2023-05-16T11:20:42.373Z,13.85
2023-05-16T11:21:42.348Z,13.90
2023-05-16T11:22:42.349Z,13.94
2023-05-16T11:23:42.325Z,13.96
2023-05-16T11:24:44.021Z,13.96
2023-05-16T11:25:42.306Z,13.90
2023-05-16T11:26:42.300Z,13.94
2023-05-16T11:27:42.290Z,14.00
2023-05-16T11:28:42.281Z,14.08
2023-05-16T11:29:42.265Z,14.11
2023-05-16T11:30:46.983Z,14.18
2023-05-16T11:31:42.299Z,14.23
2023-05-16T11:32:42.372Z,14.33
2023-05-16T11:33:42.234Z,14.37
2023-05-16T11:34:42.227Z,14.45
2023-05-16T11:35:42.248Z,14.38
2023-05-16T11:36:42.191Z,14.19
2023-05-16T11:37:42.207Z,14.09
2023-05-16T11:38:42.189Z,13.98
2023-05-16T11:39:42.229Z,14.00
2023-05-16T11:40:42.217Z,14.04
2023-05-16T11:41:44.189Z,14.12
2023-05-16T11:42:42.198Z,14.18
2023-05-16T11:43:42.120Z,14.22
2023-05-16T11:44:42.118Z,14.22
2023-05-16T11:45:42.097Z,14.22
2023-05-16T11:46:43.927Z,14.34
2023-05-16T11:47:42.139Z,14.44
2023-05-16T11:48:42.193Z,14.46
2023-05-16T11:49:42.047Z,14.51
2023-05-16T11:50:42.099Z,14.53
2023-05-16T11:51:42.038Z,14.59
2023-05-16T11:52:42.028Z,14.67
2023-05-16T11:53:42.026Z,14.73
2023-05-16T11:54:42.010Z,14.87
2023-05-16T11:55:42.683Z,14.96
2023-05-16T11:56:43.650Z,15.05
2023-05-16T11:57:41.969Z,15.04
2023-05-16T11:58:42.184Z,15.03
2023-05-16T11:59:41.946Z,14.97
2023-05-16T12:00:41.941Z,14.95
2023-05-16T12:01:41.931Z,14.85
2023-05-16T12:02:44.103Z,14.77
2023-05-16T12:03:42.044Z,14.71
2023-05-16T12:04:42.005Z,14.64
2023-05-16T12:05:41.994Z,14.59
2023-05-16T12:06:41.879Z,14.56
2023-05-16T12:07:41.947Z,14.55
2023-05-16T12:08:41.860Z,14.52
2023-05-16T12:09:41.850Z,14.44
2023-05-16T12:10:41.859Z,14.34
2023-05-16T12:11:41.912Z,14.34
2023-05-16T12:12:41.821Z,14.33
2023-05-16T12:13:41.798Z,14.27
2023-05-16T12:14:41.793Z,14.19
2023-05-16T12:15:41.809Z,14.13
2023-05-16T12:16:41.822Z,14.12
2023-05-16T12:17:43.080Z,14.15
2023-05-16T12:18:43.538Z,14.13
2023-05-16T12:19:41.734Z,14.16
2023-05-16T12:20:41.730Z,14.16
2023-05-16T12:21:41.713Z,14.13
2023-05-16T12:22:41.724Z,14.13
2023-05-16T12:23:41.758Z,14.12
2023-05-16T12:24:41.683Z,14.15
2023-05-16T12:25:41.712Z,14.19
2023-05-16T12:26:41.660Z,14.28
2023-05-16T12:27:42.038Z,14.37
2023-05-16T12:28:41.655Z,14.45
2023-05-16T12:29:41.672Z,14.49
2023-05-16T12:30:41.632Z,14.55
2023-05-16T12:31:41.920Z,14.59
2023-05-16T12:32:41.873Z,14.61
2023-05-16T12:33:41.607Z,14.59
2023-05-16T12:34:41.581Z,14.59
2023-05-16T12:35:41.590Z,14.61
2023-05-16T12:36:41.577Z,14.56
2023-05-16T12:37:41.591Z,14.49
2023-05-16T12:38:41.542Z,14.48
2023-05-16T12:39:41.568Z,14.49
2023-05-16T12:40:41.569Z,14.46
2023-05-16T12:41:41.518Z,14.41
2023-05-16T12:42:41.497Z,14.38
2023-05-16T12:43:41.474Z,14.30
2023-05-16T12:44:41.471Z,14.28
2023-05-16T12:45:41.507Z,14.28
2023-05-16T12:46:41.655Z,14.27
2023-05-16T12:47:41.500Z,14.28
2023-05-16T12:48:41.424Z,14.28
2023-05-16T12:49:41.414Z,14.21
2023-05-16T12:50:41.406Z,14.16
2023-05-16T12:51:41.418Z,14.15
2023-05-16T12:52:46.289Z,14.15
2023-05-16T12:53:57.676Z,14.15
2023-05-16T12:54:42.371Z,14.08
2023-05-16T12:55:41.356Z,14.04
2023-05-16T12:56:41.382Z,14.04
2023-05-16T12:57:41.391Z,14.04
2023-05-16T12:58:41.405Z,14.03
2023-05-16T12:59:41.307Z,14.03
2023-05-16T13:00:41.298Z,14.00
2023-05-16T13:01:41.356Z,13.96
2023-05-16T13:02:41.359Z,13.97